Philip, SD

2:05 PM MDT on October 25, 2014 (GMT -0600)
Faith | Change Station
CLOSE
Current Station
Airport
Location: Faith,
Elevation: 2582 ft
Nearby Weather Stations

Elev 2582 ft 45.03 °N, 102.02 °W | Updated 9 minutes ago

Clear
Clear
65 °F
Feels Like 65 °F
N
18
Wind Variable Wind from SSE
Gusts 23 mph

Today
High -- | Low -- °F
--% Chance of Precip.
Yesterday
High -- | Low -- °F
Precip. -- in
7:14 AM 5:46 PM
Waxing Crescent, 4% visible
Pressure 30.06 in
Visibility -9999.0 miles
Clouds
Dew Point 33 °F
Humidity 31%
Rainfall 0.00 in
Snow Depth Not available.
UV Not available.
Pollen 2.10 out of 12
Air Quality Not available.
Flu Activity Sporadic
METAR KD07 251956Z AUTO 16016G20KT 18/01 A3006 RMK AO1 SLP179 T01830006

More Conditions Fewer Conditions

Pressure 30.06 in
Visibility -9999.0 miles
Clouds
Dew Point 33 °F
Humidity 31%
Rainfall 0.00 in
Snow Depth Not available.
UV Not available.
Pollen 2.10 out of 12
Air Quality Not available.
Flu Activity Sporadic
METAR KD07 251956Z AUTO 16016G20KT 18/01 A3006 RMK AO1 SLP179 T01830006

More Conditions Fewer Conditions

10-Day Weather Forecast

Almanac

Astronomy

Oct. 25, 2014 Rise Set
Actual Time 7:14 AM MDT 5:46 PM MDT
Civil Twilight 6:44 AM MDT 6:16 PM MDT
Nautical Twilight 6:10 AM MDT 6:50 PM MDT
Astronomical Twilight 5:37 AM MDT 7:23 PM MDT
Moon 8:57 AM MDT 7:08 PM MDT
Length of Visible Light 11h 31m
Length of Day
10h 32m
Tomorrow will be 2m 48s shorter.
Waxing Crescent, 4% of the Moon is Illuminated
Today
Waxing Crescent
Oct 30
First Quarter
Nov 6
Full
Nov 14
Last Quarter
Nov 22
New

Today's Extremes

State Highs State Lows

Community

WunderPhotos

Upload Photos

1,764,976 photos uploaded!

Nearby

Snow Depth

Station Depth Elevation
North Rapid Creek 0 in 6130 ft

Earthquake Activity

City Distance Mag. Time & Date
No recent earthquake activity has been reported nearby.
Minimum magnitude displayed is 2.5.

Coastal Water Temperatures

Place Temperature
No Stations Reporting

Nearby Weather Stations